Fremont, Ohio
Current Conditions -  °F | °C
As of 3:53 PM on Tuesday 21 Oct 2014 (Local Time) from KPCW Reporting Station
Light Rain Light Rain  
Wind Chill: 43°   Ceiling: 2100
Heat Index: 48°   Visibility: 8mi
Dew Point: 41°   Wind: 13mph
Humidity: 76%   Direction: 20°NNE
Pressure: 30.05"   Gusts: NA
Location:  41.35°N, 83.11°W
Report Text: KPCW 211953Z AUTO 02011KT 8SM -RA BKN021 BKN027 OVC033 09/05 A3005 RMK
Loading
Personal Weather Stations






























Interactive Weather Map
Tropical Storm Tracking
New forecast layout! Learn more

10-Day Weather Forecast

Advertisements
Track Severe Weather on mobile